sensor_id;sensor_type;location;lat;lon;timestamp;pressure;altitude;pressure_sealevel;temperature;humidity
16355;BME280;8287;51.644;8.494;2023-04-06T00:00:11;100667.94;;;5.68;53.47
16355;BME280;8287;51.644;8.494;2023-04-06T00:02:37;100662.97;;;5.77;52.98
16355;BME280;8287;51.644;8.494;2023-04-06T00:05:05;100664.53;;;5.73;52.18
16355;BME280;8287;51.644;8.494;2023-04-06T00:07:33;100652.72;;;5.85;52.22
16355;BME280;8287;51.644;8.494;2023-04-06T00:09:59;100654.28;;;5.91;52.31
16355;BME280;8287;51.644;8.494;2023-04-06T00:12:26;100651.41;;;5.93;52.40
16355;BME280;8287;51.644;8.494;2023-04-06T00:14:54;100650.59;;;5.92;51.96
16355;BME280;8287;51.644;8.494;2023-04-06T00:17:20;100654.03;;;5.93;51.61
16355;BME280;8287;51.644;8.494;2023-04-06T00:19:47;100648.00;;;5.82;51.62
16355;BME280;8287;51.644;8.494;2023-04-06T00:22:14;100645.84;;;5.94;51.37
16355;BME280;8287;51.644;8.494;2023-04-06T00:24:41;100643.53;;;5.93;51.50
16355;BME280;8287;51.644;8.494;2023-04-06T00:27:07;100639.53;;;6.10;51.19
16355;BME280;8287;51.644;8.494;2023-04-06T00:29:34;100641.94;;;5.87;51.74
16355;BME280;8287;51.644;8.494;2023-04-06T00:32:02;100635.88;;;5.86;51.40
16355;BME280;8287;51.644;8.494;2023-04-06T00:34:29;100636.69;;;5.92;51.64
16355;BME280;8287;51.644;8.494;2023-04-06T00:36:55;100631.69;;;5.95;51.06
16355;BME280;8287;51.644;8.494;2023-04-06T00:39:22;100637.72;;;6.01;50.81
16355;BME280;8287;51.644;8.494;2023-04-06T00:41:51;100640.38;;;5.81;51.25
16355;BME280;8287;51.644;8.494;2023-04-06T00:44:18;100637.72;;;5.81;51.50
16355;BME280;8287;51.644;8.494;2023-04-06T00:46:45;100630.09;;;5.89;51.30
16355;BME280;8287;51.644;8.494;2023-04-06T00:49:13;100629.81;;;6.01;50.82
16355;BME280;8287;51.644;8.494;2023-04-06T00:51:40;100625.84;;;6.03;50.73
16355;BME280;8287;51.644;8.494;2023-04-06T00:54:07;100616.94;;;5.94;50.54
16355;BME280;8287;51.644;8.494;2023-04-06T00:56:34;100607.69;;;6.07;50.93
16355;BME280;8287;51.644;8.494;2023-04-06T00:59:01;100612.41;;;6.15;51.08
16355;BME280;8287;51.644;8.494;2023-04-06T01:01:28;100608.00;;;6.05;50.67
16355;BME280;8287;51.644;8.494;2023-04-06T01:03:58;100604.00;;;6.08;50.96
16355;BME280;8287;51.644;8.494;2023-04-06T01:06:26;100601.63;;;6.11;50.65
16355;BME280;8287;51.644;8.494;2023-04-06T01:08:52;100601.66;;;6.06;50.65
16355;BME280;8287;51.644;8.494;2023-04-06T01:11:19;100601.13;;;6.09;50.59
16355;BME280;8287;51.644;8.494;2023-04-06T01:13:46;100594.84;;;6.05;50.41
16355;BME280;8287;51.644;8.494;2023-04-06T01:16:12;100590.91;;;6.03;50.03
16355;BME280;8287;51.644;8.494;2023-04-06T01:18:39;100590.59;;;6.09;50.95
16355;BME280;8287;51.644;8.494;2023-04-06T01:21:07;100590.31;;;6.16;50.51
16355;BME280;8287;51.644;8.494;2023-04-06T01:23:36;100590.34;;;6.11;50.33
16355;BME280;8287;51.644;8.494;2023-04-06T01:26:03;100587.16;;;6.19;50.02
16355;BME280;8287;51.644;8.494;2023-04-06T01:28:30;100588.47;;;6.11;50.60
16355;BME280;8287;51.644;8.494;2023-04-06T01:30:56;100584.03;;;6.07;49.88
16355;BME280;8287;51.644;8.494;2023-04-06T01:33:23;100580.34;;;6.08;50.27
16355;BME280;8287;51.644;8.494;2023-04-06T01:35:50;100581.94;;;6.09;49.88
16355;BME280;8287;51.644;8.494;2023-04-06T01:38:16;100579.28;;;6.14;49.68
16355;BME280;8287;51.644;8.494;2023-04-06T01:40:45;100583.47;;;6.15;50.23
16355;BME280;8287;51.644;8.494;2023-04-06T01:43:11;100577.72;;;6.08;50.67
16355;BME280;8287;51.644;8.494;2023-04-06T01:45:38;100574.91;;;5.79;50.90
16355;BME280;8287;51.644;8.494;2023-04-06T01:48:06;100570.44;;;5.85;51.40
16355;BME280;8287;51.644;8.494;2023-04-06T01:50:33;100572.22;;;5.99;50.92
16355;BME280;8287;51.644;8.494;2023-04-06T01:53:00;100571.97;;;6.01;51.69
16355;BME280;8287;51.644;8.494;2023-04-06T01:55:26;100565.13;;;5.95;52.65
16355;BME280;8287;51.644;8.494;2023-04-06T01:57:54;100572.03;;;5.51;54.56
16355;BME280;8287;51.644;8.494;2023-04-06T02:00:21;100562.06;;;5.38;54.76
16355;BME280;8287;51.644;8.494;2023-04-06T02:02:48;100564.19;;;5.16;55.75
16355;BME280;8287;51.644;8.494;2023-04-06T02:05:15;100562.56;;;4.95;57.17
16355;BME280;8287;51.644;8.494;2023-04-06T02:07:41;100564.94;;;5.06;56.93
16355;BME280;8287;51.644;8.494;2023-04-06T02:10:11;100560.47;;;5.02;56.58
16355;BME280;8287;51.644;8.494;2023-04-06T02:12:38;100558.38;;;4.99;56.30
16355;BME280;8287;51.644;8.494;2023-04-06T02:15:07;100553.09;;;4.89;57.42
16355;BME280;8287;51.644;8.494;2023-04-06T02:17:34;100561.50;;;4.81;57.90
16355;BME280;8287;51.644;8.494;2023-04-06T02:20:01;100558.09;;;4.80;57.55
16355;BME280;8287;51.644;8.494;2023-04-06T02:22:27;100553.34;;;4.72;57.96
16355;BME280;8287;51.644;8.494;2023-04-06T02:24:54;100560.13;;;4.48;58.97
16355;BME280;8287;51.644;8.494;2023-04-06T02:27:21;100559.81;;;4.40;60.45
16355;BME280;8287;51.644;8.494;2023-04-06T02:29:47;100559.78;;;4.30;60.29
16355;BME280;8287;51.644;8.494;2023-04-06T02:32:16;100558.50;;;4.42;59.70
16355;BME280;8287;51.644;8.494;2023-04-06T02:34:42;100551.94;;;4.35;59.49
16355;BME280;8287;51.644;8.494;2023-04-06T02:37:09;100555.34;;;4.35;59.19
16355;BME280;8287;51.644;8.494;2023-04-06T02:39:36;100550.88;;;4.31;59.03
16355;BME280;8287;51.644;8.494;2023-04-06T02:42:02;100555.59;;;4.24;59.28
16355;BME280;8287;51.644;8.494;2023-04-06T02:44:29;100557.66;;;4.17;59.24
16355;BME280;8287;51.644;8.494;2023-04-06T02:46:56;100564.34;;;3.98;60.27
16355;BME280;8287;51.644;8.494;2023-04-06T02:49:24;100561.22;;;3.96;61.09
16355;BME280;8287;51.644;8.494;2023-04-06T02:51:51;100567.75;;;3.88;61.16
16355;BME280;8287;51.644;8.494;2023-04-06T02:54:17;100564.34;;;3.93;60.95
16355;BME280;8287;51.644;8.494;2023-04-06T02:56:44;100565.88;;;3.89;61.25
16355;BME280;8287;51.644;8.494;2023-04-06T02:59:10;100570.59;;;3.82;62.36
16355;BME280;8287;51.644;8.494;2023-04-06T03:01:37;100561.34;;;3.74;62.06
16355;BME280;8287;51.644;8.494;2023-04-06T03:04:04;100565.34;;;3.82;61.82
16355;BME280;8287;51.644;8.494;2023-04-06T03:06:32;100566.84;;;3.73;62.18
16355;BME280;8287;51.644;8.494;2023-04-06T03:08:58;100564.75;;;3.70;61.83
16355;BME280;8287;51.644;8.494;2023-04-06T03:11:25;100558.50;;;3.81;61.33
16355;BME280;8287;51.644;8.494;2023-04-06T03:13:52;100560.63;;;3.84;60.80
16355;BME280;8287;51.644;8.494;2023-04-06T03:16:19;100567.66;;;3.73;60.85
16355;BME280;8287;51.644;8.494;2023-04-06T03:18:46;100555.00;;;3.60;61.79
16355;BME280;8287;51.644;8.494;2023-04-06T03:21:12;100563.16;;;3.69;61.76
16355;BME280;8287;51.644;8.494;2023-04-06T03:23:41;100563.97;;;3.69;62.12
16355;BME280;8287;51.644;8.494;2023-04-06T03:26:08;100560.16;;;3.50;62.85
16355;BME280;8287;51.644;8.494;2023-04-06T03:28:35;100559.84;;;3.42;62.98
16355;BME280;8287;51.644;8.494;2023-04-06T03:31:01;100565.09;;;3.42;63.55
16355;BME280;8287;51.644;8.494;2023-04-06T03:33:28;100561.19;;;3.44;63.23
16355;BME280;8287;51.644;8.494;2023-04-06T03:35:55;100563.25;;;3.42;63.35
16355;BME280;8287;51.644;8.494;2023-04-06T03:38:21;100559.03;;;3.41;63.35
16355;BME280;8287;51.644;8.494;2023-04-06T03:40:49;100561.38;;;3.38;63.43
16355;BME280;8287;51.644;8.494;2023-04-06T03:43:16;100558.69;;;3.28;63.85
16355;BME280;8287;51.644;8.494;2023-04-06T03:45:43;100555.00;;;3.24;63.76
16355;BME280;8287;51.644;8.494;2023-04-06T03:48:09;100559.94;;;3.20;63.95
16355;BME280;8287;51.644;8.494;2023-04-06T03:50:36;100556.97;;;3.07;65.15
16355;BME280;8287;51.644;8.494;2023-04-06T03:53:02;100554.72;;;3.20;63.76
16355;BME280;8287;51.644;8.494;2023-04-06T03:55:29;100556.50;;;3.15;64.19
16355;BME280;8287;51.644;8.494;2023-04-06T03:57:57;100557.25;;;3.11;64.50
16355;BME280;8287;51.644;8.494;2023-04-06T04:00:24;100553.59;;;3.12;64.28
16355;BME280;8287;51.644;8.494;2023-04-06T04:02:51;100559.16;;;3.20;63.63
16355;BME280;8287;51.644;8.494;2023-04-06T04:05:17;100559.81;;;3.06;65.22
16355;BME280;8287;51.644;8.494;2023-04-06T04:07:44;100560.03;;;2.99;65.54
16355;BME280;8287;51.644;8.494;2023-04-06T04:10:10;100555.53;;;2.95;65.34
16355;BME280;8287;51.644;8.494;2023-04-06T04:12:37;100556.03;;;2.92;65.44
16355;BME280;8287;51.644;8.494;2023-04-06T04:15:06;100557.06;;;2.91;65.18
16355;BME280;8287;51.644;8.494;2023-04-06T04:17:33;100563.41;;;3.00;65.29
16355;BME280;8287;51.644;8.494;2023-04-06T04:19:59;100562.28;;;3.17;64.41
16355;BME280;8287;51.644;8.494;2023-04-06T04:22:26;100567.44;;;3.07;64.75
16355;BME280;8287;51.644;8.494;2023-04-06T04:24:53;100555.91;;;3.08;65.10
16355;BME280;8287;51.644;8.494;2023-04-06T04:27:20;100562.44;;;3.06;65.19
16355;BME280;8287;51.644;8.494;2023-04-06T04:29:47;100557.06;;;3.22;63.70
16355;BME280;8287;51.644;8.494;2023-04-06T04:32:15;100562.28;;;3.17;63.88
16355;BME280;8287;51.644;8.494;2023-04-06T04:34:41;100563.03;;;3.13;64.60
16355;BME280;8287;51.644;8.494;2023-04-06T04:37:08;100557.81;;;3.17;63.91
16355;BME280;8287;51.644;8.494;2023-04-06T04:39:35;100565.09;;;3.11;64.12
16355;BME280;8287;51.644;8.494;2023-04-06T04:42:02;100556.50;;;3.15;63.47
16355;BME280;8287;51.644;8.494;2023-04-06T04:44:28;100556.97;;;3.12;64.40
16355;BME280;8287;51.644;8.494;2023-04-06T04:46:55;100552.56;;;3.13;63.55
16355;BME280;8287;51.644;8.494;2023-04-06T04:49:23;100559.13;;;3.15;63.68
16355;BME280;8287;51.644;8.494;2023-04-06T04:51:50;100552.47;;;3.03;64.48
16355;BME280;8287;51.644;8.494;2023-04-06T04:54:17;100551.47;;;3.08;64.41
16355;BME280;8287;51.644;8.494;2023-04-06T04:56:44;100556.44;;;3.10;64.22
16355;BME280;8287;51.644;8.494;2023-04-06T04:59:11;100547.31;;;3.13;63.87
16355;BME280;8287;51.644;8.494;2023-04-06T05:01:38;100557.44;;;3.04;64.35
16355;BME280;8287;51.644;8.494;2023-04-06T05:04:04;100556.50;;;3.15;63.86
16355;BME280;8287;51.644;8.494;2023-04-06T05:06:32;100556.81;;;3.18;63.83
16355;BME280;8287;51.644;8.494;2023-04-06T05:08:59;100552.88;;;3.21;63.33
16355;BME280;8287;51.644;8.494;2023-04-06T05:11:26;100560.94;;;3.14;64.31
16355;BME280;8287;51.644;8.494;2023-04-06T05:13:53;100555.75;;;3.19;63.36
16355;BME280;8287;51.644;8.494;2023-04-06T05:16:20;100547.59;;;3.16;63.40
16355;BME280;8287;51.644;8.494;2023-04-06T05:18:47;100550.88;;;3.33;62.06
16355;BME280;8287;51.644;8.494;2023-04-06T05:21:14;100555.50;;;3.57;59.99
16355;BME280;8287;51.644;8.494;2023-04-06T05:23:42;100555.97;;;3.91;58.86
16355;BME280;8287;51.644;8.494;2023-04-06T05:26:08;100547.16;;;4.17;56.98
16355;BME280;8287;51.644;8.494;2023-04-06T05:28:35;100552.50;;;4.42;56.38
16355;BME280;8287;51.644;8.494;2023-04-06T05:31:02;100548.03;;;4.52;56.03
16355;BME280;8287;51.644;8.494;2023-04-06T05:33:29;100551.50;;;4.73;55.93
16355;BME280;8287;51.644;8.494;2023-04-06T05:35:55;100542.06;;;4.82;54.95
16355;BME280;8287;51.644;8.494;2023-04-06T05:38:22;100545.50;;;4.97;53.78
16355;BME280;8287;51.644;8.494;2023-04-06T05:40:50;100545.25;;;5.14;53.54
16355;BME280;8287;51.644;8.494;2023-04-06T05:43:17;100539.97;;;5.24;52.62
16355;BME280;8287;51.644;8.494;2023-04-06T05:45:44;100536.81;;;5.52;52.20
16355;BME280;8287;51.644;8.494;2023-04-06T05:48:10;100540.75;;;5.64;52.51
16355;BME280;8287;51.644;8.494;2023-04-06T05:50:37;100542.53;;;5.74;51.48
16355;BME280;8287;51.644;8.494;2023-04-06T05:53:04;100539.09;;;5.78;51.75
16355;BME280;8287;51.644;8.494;2023-04-06T05:55:30;100548.59;;;5.84;51.53
16355;BME280;8287;51.644;8.494;2023-04-06T05:57:58;100550.94;;;5.91;52.04
16355;BME280;8287;51.644;8.494;2023-04-06T06:00:25;100547.00;;;5.93;53.37
16355;BME280;8287;51.644;8.494;2023-04-06T06:02:52;100550.44;;;5.89;53.41
16355;BME280;8287;51.644;8.494;2023-04-06T06:05:19;100547.75;;;5.99;52.87
16355;BME280;8287;51.644;8.494;2023-04-06T06:07:45;100543.50;;;6.08;51.72
16355;BME280;8287;51.644;8.494;2023-04-06T06:10:12;100539.31;;;6.17;50.91
16355;BME280;8287;51.644;8.494;2023-04-06T06:12:38;100536.81;;;6.35;50.31
16355;BME280;8287;51.644;8.494;2023-04-06T06:15:07;100530.19;;;6.47;49.72
16355;BME280;8287;51.644;8.494;2023-04-06T06:17:34;100534.56;;;6.62;48.61
16355;BME280;8287;51.644;8.494;2023-04-06T06:20:01;100528.19;;;6.73;47.87
16355;BME280;8287;51.644;8.494;2023-04-06T06:22:28;100531.50;;;6.88;48.79
16355;BME280;8287;51.644;8.494;2023-04-06T06:24:55;100530.88;;;7.01;48.42
16355;BME280;8287;51.644;8.494;2023-04-06T06:27:21;100523.75;;;7.02;48.04
16355;BME280;8287;51.644;8.494;2023-04-06T06:29:48;100528.59;;;7.23;47.72
16355;BME280;8287;51.644;8.494;2023-04-06T06:32:16;100517.97;;;7.33;47.67
16355;BME280;8287;51.644;8.494;2023-04-06T06:34:43;100523.16;;;7.43;47.56
16355;BME280;8287;51.644;8.494;2023-04-06T06:37:10;100519.38;;;7.49;47.17
16355;BME280;8287;51.644;8.494;2023-04-06T06:39:36;100518.72;;;7.62;47.22
16355;BME280;8287;51.644;8.494;2023-04-06T06:42:03;100520.50;;;7.72;46.81
16355;BME280;8287;51.644;8.494;2023-04-06T06:44:30;100532.44;;;7.88;46.43
16355;BME280;8287;51.644;8.494;2023-04-06T06:46:56;100524.69;;;7.96;46.16
16355;BME280;8287;51.644;8.494;2023-04-06T06:49:24;100514.94;;;8.15;46.54
16355;BME280;8287;51.644;8.494;2023-04-06T06:51:51;100509.38;;;8.22;45.72
16355;BME280;8287;51.644;8.494;2023-04-06T06:54:17;100516.56;;;8.35;45.10
16355;BME280;8287;51.644;8.494;2023-04-06T06:56:45;100514.59;;;8.45;44.85
16355;BME280;8287;51.644;8.494;2023-04-06T06:59:11;100509.16;;;8.55;44.72
16355;BME280;8287;51.644;8.494;2023-04-06T07:01:38;100510.03;;;8.69;44.26
16355;BME280;8287;51.644;8.494;2023-04-06T07:04:05;100507.94;;;8.85;43.74
16355;BME280;8287;51.644;8.494;2023-04-06T07:06:34;100508.97;;;9.02;44.21
16355;BME280;8287;51.644;8.494;2023-04-06T07:09:01;100511.19;;;9.14;44.41
16355;BME280;8287;51.644;8.494;2023-04-06T07:11:29;100511.41;;;9.31;44.11
16355;BME280;8287;51.644;8.494;2023-04-06T07:13:56;100500.34;;;9.42;43.19
16355;BME280;8287;51.644;8.494;2023-04-06T07:16:23;100500.19;;;9.66;43.29
16355;BME280;8287;51.644;8.494;2023-04-06T07:18:50;100493.81;;;9.67;42.39
16355;BME280;8287;51.644;8.494;2023-04-06T07:21:16;100492.06;;;10.02;42.41
16355;BME280;8287;51.644;8.494;2023-04-06T07:23:44;100499.09;;;10.20;42.32
16355;BME280;8287;51.644;8.494;2023-04-06T07:26:13;100494.06;;;10.46;41.41
16355;BME280;8287;51.644;8.494;2023-04-06T07:28:40;100498.41;;;10.64;39.27
16355;BME280;8287;51.644;8.494;2023-04-06T07:31:06;100494.25;;;10.93;41.81
16355;BME280;8287;51.644;8.494;2023-04-06T07:33:33;100500.22;;;11.21;41.74
16355;BME280;8287;51.644;8.494;2023-04-06T07:36:00;100488.59;;;11.39;39.77
16355;BME280;8287;51.644;8.494;2023-04-06T07:38:26;100486.31;;;11.54;38.73
16355;BME280;8287;51.644;8.494;2023-04-06T07:40:54;100480.94;;;11.68;38.60
16355;BME280;8287;51.644;8.494;2023-04-06T07:43:21;100486.97;;;11.99;39.36
16355;BME280;8287;51.644;8.494;2023-04-06T07:45:48;100488.25;;;12.10;38.08
16355;BME280;8287;51.644;8.494;2023-04-06T07:48:14;100482.50;;;12.16;36.79
16355;BME280;8287;51.644;8.494;2023-04-06T07:50:41;100482.97;;;12.27;37.41
16355;BME280;8287;51.644;8.494;2023-04-06T07:53:08;100478.44;;;12.36;36.74
16355;BME280;8287;51.644;8.494;2023-04-06T07:55:34;100475.94;;;12.56;37.64
16355;BME280;8287;51.644;8.494;2023-04-06T07:58:03;100474.84;;;12.66;36.32
16355;BME280;8287;51.644;8.494;2023-04-06T08:00:29;100473.13;;;12.95;37.17
16355;BME280;8287;51.644;8.494;2023-04-06T08:02:56;100476.41;;;13.09;36.09
16355;BME280;8287;51.644;8.494;2023-04-06T08:05:23;100467.47;;;13.14;36.19
16355;BME280;8287;51.644;8.494;2023-04-06T08:07:50;100469.34;;;13.13;34.99
16355;BME280;8287;51.644;8.494;2023-04-06T08:10:16;100478.06;;;13.22;35.51
16355;BME280;8287;51.644;8.494;2023-04-06T08:12:43;100472.75;;;13.30;36.44
16355;BME280;8287;51.644;8.494;2023-04-06T08:15:11;100472.56;;;13.35;35.84
16355;BME280;8287;51.644;8.494;2023-04-06T08:17:38;100480.03;;;13.50;35.45
16355;BME280;8287;51.644;8.494;2023-04-06T08:20:05;100475.63;;;13.54;36.17
16355;BME280;8287;51.644;8.494;2023-04-06T08:22:32;100472.84;;;13.80;35.67
16355;BME280;8287;51.644;8.494;2023-04-06T08:24:59;100472.81;;;13.88;34.71
16355;BME280;8287;51.644;8.494;2023-04-06T08:27:25;100478.97;;;13.72;35.25
16355;BME280;8287;51.644;8.494;2023-04-06T08:29:52;100474.81;;;13.91;34.65
16355;BME280;8287;51.644;8.494;2023-04-06T08:32:20;100476.06;;;13.94;35.00
16355;BME280;8287;51.644;8.494;2023-04-06T08:34:47;100477.84;;;14.10;34.46
16355;BME280;8287;51.644;8.494;2023-04-06T08:37:13;100479.69;;;13.89;34.27
16355;BME280;8287;51.644;8.494;2023-04-06T08:39:40;100483.28;;;14.14;34.07
16355;BME280;8287;51.644;8.494;2023-04-06T08:42:16;100476.25;;;14.18;35.01
16355;BME280;8287;51.644;8.494;2023-04-06T08:44:45;100475.78;;;14.36;34.18
16355;BME280;8287;51.644;8.494;2023-04-06T08:47:12;100471.13;;;14.33;34.62
16355;BME280;8287;51.644;8.494;2023-04-06T08:49:42;100474.81;;;14.41;34.33
16355;BME280;8287;51.644;8.494;2023-04-06T08:52:10;100467.88;;;14.48;34.36
16355;BME280;8287;51.644;8.494;2023-04-06T08:54:37;100468.28;;;14.59;34.21
16355;BME280;8287;51.644;8.494;2023-04-06T08:57:04;100470.44;;;14.77;34.37
16355;BME280;8287;51.644;8.494;2023-04-06T08:59:32;100465.44;;;14.76;34.02
16355;BME280;8287;51.644;8.494;2023-04-06T09:02:00;100460.44;;;14.74;33.74
16355;BME280;8287;51.644;8.494;2023-04-06T09:04:29;100457.50;;;14.67;33.87
16355;BME280;8287;51.644;8.494;2023-04-06T09:06:57;100464.66;;;14.75;34.99
16355;BME280;8287;51.644;8.494;2023-04-06T09:09:24;100463.38;;;14.93;34.01
16355;BME280;8287;51.644;8.494;2023-04-06T09:11:51;100456.19;;;15.06;34.28
16355;BME280;8287;51.644;8.494;2023-04-06T09:14:33;100464.75;;;15.11;33.85
16355;BME280;8287;51.644;8.494;2023-04-06T09:17:00;100459.03;;;15.21;33.85
16355;BME280;8287;51.644;8.494;2023-04-06T09:19:27;100451.22;;;15.16;34.30
16355;BME280;8287;51.644;8.494;2023-04-06T09:22:03;100451.22;;;15.28;33.40
16355;BME280;8287;51.644;8.494;2023-04-06T09:24:39;100446.59;;;15.37;33.54
16355;BME280;8287;51.644;8.494;2023-04-06T09:27:06;100453.00;;;15.24;33.96
16355;BME280;8287;51.644;8.494;2023-04-06T09:29:33;100455.59;;;15.33;32.98
16355;BME280;8287;51.644;8.494;2023-04-06T09:32:03;100460.19;;;15.32;34.04
16355;BME280;8287;51.644;8.494;2023-04-06T09:34:30;100447.00;;;15.27;34.15
16355;BME280;8287;51.644;8.494;2023-04-06T09:36:57;100444.28;;;15.36;34.32
16355;BME280;8287;51.644;8.494;2023-04-06T09:39:25;100449.34;;;15.29;33.21
16355;BME280;8287;51.644;8.494;2023-04-06T09:41:53;100449.72;;;15.39;32.25
16355;BME280;8287;51.644;8.494;2023-04-06T09:44:21;100444.28;;;15.36;33.14
16355;BME280;8287;51.644;8.494;2023-04-06T09:46:49;100445.09;;;15.16;33.11
16355;BME280;8287;51.644;8.494;2023-04-06T09:49:16;100448.19;;;15.38;33.36
16355;BME280;8287;51.644;8.494;2023-04-06T09:51:46;100437.59;;;15.42;33.19
16355;BME280;8287;51.644;8.494;2023-04-06T09:54:16;100438.38;;;15.42;33.90
16355;BME280;8287;51.644;8.494;2023-04-06T09:56:47;100447.28;;;15.58;33.18
16355;BME280;8287;51.644;8.494;2023-04-06T09:59:22;100450.53;;;15.52;31.75
16355;BME280;8287;51.644;8.494;2023-04-06T10:01:51;100448.19;;;15.50;31.98
16355;BME280;8287;51.644;8.494;2023-04-06T10:04:29;100436.53;;;15.10;33.33
16355;BME280;8287;51.644;8.494;2023-04-06T10:06:59;100440.72;;;15.68;33.96
16355;BME280;8287;51.644;8.494;2023-04-06T10:09:29;100439.13;;;15.91;32.52
16355;BME280;8287;51.644;8.494;2023-04-06T10:12:03;100438.13;;;15.95;31.82
16355;BME280;8287;51.644;8.494;2023-04-06T10:14:31;100439.25;;;15.94;30.55
16355;BME280;8287;51.644;8.494;2023-04-06T10:16:59;100435.09;;;16.21;32.22
16355;BME280;8287;51.644;8.494;2023-04-06T10:19:32;100426.84;;;16.14;31.02
16355;BME280;8287;51.644;8.494;2023-04-06T10:22:02;100432.41;;;16.21;31.91
16355;BME280;8287;51.644;8.494;2023-04-06T10:24:31;100438.53;;;16.21;31.37
16355;BME280;8287;51.644;8.494;2023-04-06T10:26:58;100436.31;;;16.23;30.11
16355;BME280;8287;51.644;8.494;2023-04-06T10:29:27;100444.75;;;16.37;30.30
16355;BME280;8287;51.644;8.494;2023-04-06T10:31:54;100432.41;;;16.21;31.30
16355;BME280;8287;51.644;8.494;2023-04-06T10:34:21;100433.28;;;16.37;29.41
16355;BME280;8287;51.644;8.494;2023-04-06T10:36:48;100432.00;;;16.46;30.62
16355;BME280;8287;51.644;8.494;2023-04-06T10:39:24;100430.16;;;16.35;29.33
16355;BME280;8287;51.644;8.494;2023-04-06T10:41:52;100437.28;;;16.31;28.16
16355;BME280;8287;51.644;8.494;2023-04-06T10:44:20;100433.59;;;16.47;28.44
16355;BME280;8287;51.644;8.494;2023-04-06T10:46:54;100438.09;;;16.59;29.71
16355;BME280;8287;51.644;8.494;2023-04-06T10:49:21;100435.91;;;16.76;28.79
16355;BME280;8287;51.644;8.494;2023-04-06T10:51:51;100439.63;;;16.72;28.69
16355;BME280;8287;51.644;8.494;2023-04-06T10:54:21;100430.47;;;16.73;29.19
16355;BME280;8287;51.644;8.494;2023-04-06T10:56:48;100435.97;;;16.64;28.33
16355;BME280;8287;51.644;8.494;2023-04-06T10:59:18;100429.34;;;16.73;28.94
16355;BME280;8287;51.644;8.494;2023-04-06T11:01:45;100418.81;;;16.80;28.98
16355;BME280;8287;51.644;8.494;2023-04-06T11:04:17;100421.25;;;16.85;30.66
16355;BME280;8287;51.644;8.494;2023-04-06T11:06:46;100415.91;;;17.01;29.59
16355;BME280;8287;51.644;8.494;2023-04-06T11:09:23;100425.69;;;17.09;29.08
16355;BME280;8287;51.644;8.494;2023-04-06T11:11:52;100417.97;;;16.92;30.12
16355;BME280;8287;51.644;8.494;2023-04-06T11:14:19;100424.41;;;17.18;30.32
16355;BME280;8287;51.644;8.494;2023-04-06T11:16:46;100425.75;;;17.40;28.47
16355;BME280;8287;51.644;8.494;2023-04-06T11:19:14;100414.44;;;16.88;28.32
16355;BME280;8287;51.644;8.494;2023-04-06T11:21:43;100412.72;;;16.95;30.24
16355;BME280;8287;51.644;8.494;2023-04-06T11:24:14;100410.44;;;17.40;30.13
16355;BME280;8287;51.644;8.494;2023-04-06T11:26:42;100414.66;;;17.57;30.75
16355;BME280;8287;51.644;8.494;2023-04-06T11:29:10;100399.75;;;17.75;27.74
16355;BME280;8287;51.644;8.494;2023-04-06T11:31:41;100398.53;;;17.72;28.91
16355;BME280;8287;51.644;8.494;2023-04-06T11:34:12;100405.25;;;18.16;29.00
16355;BME280;8287;51.644;8.494;2023-04-06T11:36:42;100403.13;;;18.25;28.02
16355;BME280;8287;51.644;8.494;2023-04-06T11:39:09;100398.13;;;18.24;29.07
16355;BME280;8287;51.644;8.494;2023-04-06T11:41:36;100395.53;;;18.27;30.24
16355;BME280;8287;51.644;8.494;2023-04-06T11:44:03;100394.44;;;17.94;28.34
16355;BME280;8287;51.644;8.494;2023-04-06T11:46:31;100388.59;;;18.26;30.30
16355;BME280;8287;51.644;8.494;2023-04-06T11:48:58;100382.97;;;18.31;28.32
16355;BME280;8287;51.644;8.494;2023-04-06T11:51:26;100377.66;;;18.54;26.83
16355;BME280;8287;51.644;8.494;2023-04-06T11:53:54;100382.72;;;18.21;27.48
16355;BME280;8287;51.644;8.494;2023-04-06T11:56:26;100385.72;;;18.35;26.81
16355;BME280;8287;51.644;8.494;2023-04-06T11:58:54;100377.88;;;18.87;25.51
16355;BME280;8287;51.644;8.494;2023-04-06T12:01:22;100373.97;;;19.07;25.62
16355;BME280;8287;51.644;8.494;2023-04-06T12:03:49;100376.59;;;19.22;25.80
16355;BME280;8287;51.644;8.494;2023-04-06T12:06:16;100381.63;;;19.24;24.70
16355;BME280;8287;51.644;8.494;2023-04-06T12:08:43;100370.28;;;18.92;25.75
16355;BME280;8287;51.644;8.494;2023-04-06T12:11:12;100369.75;;;18.83;26.29
16355;BME280;8287;51.644;8.494;2023-04-06T12:13:39;100367.25;;;19.16;26.70
16355;BME280;8287;51.644;8.494;2023-04-06T12:16:05;100360.66;;;19.33;25.99
16355;BME280;8287;51.644;8.494;2023-04-06T12:18:32;100365.22;;;19.32;25.73
16355;BME280;8287;51.644;8.494;2023-04-06T12:20:59;100364.88;;;19.34;25.63
16355;BME280;8287;51.644;8.494;2023-04-06T12:23:25;100366.44;;;19.35;26.04
16355;BME280;8287;51.644;8.494;2023-04-06T12:25:52;100361.53;;;19.18;25.03
16355;BME280;8287;51.644;8.494;2023-04-06T12:28:21;100358.59;;;19.26;25.21
16355;BME280;8287;51.644;8.494;2023-04-06T12:30:52;100351.38;;;19.30;25.17
16355;BME280;8287;51.644;8.494;2023-04-06T12:33:19;100351.84;;;19.62;25.90
16355;BME280;8287;51.644;8.494;2023-04-06T12:35:45;100357.28;;;19.95;27.74
16355;BME280;8287;51.644;8.494;2023-04-06T12:38:12;100356.03;;;19.89;25.11
16355;BME280;8287;51.644;8.494;2023-04-06T12:40:39;100356.13;;;19.96;26.56
16355;BME280;8287;51.644;8.494;2023-04-06T12:43:06;100356.47;;;19.91;25.95
16355;BME280;8287;51.644;8.494;2023-04-06T12:45:35;100356.22;;;20.03;27.25
16355;BME280;8287;51.644;8.494;2023-04-06T12:48:02;100350.97;;;20.10;28.76
16355;BME280;8287;51.644;8.494;2023-04-06T12:50:28;100343.22;;;20.38;25.68
16355;BME280;8287;51.644;8.494;2023-04-06T12:52:55;100350.84;;;20.68;25.57
16355;BME280;8287;51.644;8.494;2023-04-06T12:55:22;100337.06;;;20.77;25.75
16355;BME280;8287;51.644;8.494;2023-04-06T12:57:48;100343.13;;;20.67;25.59
16355;BME280;8287;51.644;8.494;2023-04-06T13:00:16;100334.34;;;20.34;24.35
16355;BME280;8287;51.644;8.494;2023-04-06T13:02:44;100342.09;;;20.42;26.00
16355;BME280;8287;51.644;8.494;2023-04-06T13:05:13;100336.00;;;20.45;25.75